Time;durP1;ratioP1;P1;durP2;ratioP2;P2;SDS_P1;SDS_P2;PMS_P1;PMS_P2;Temp;Humidity;BMP_temperature;BMP_pressure;BME280_temperature;BME280_humidity;BME280_pressure;Samples;Min_cycle;Max_cycle;Signal;HPM_P1;HPM_P2
2022/04/01 00:01:28;;;;;;;3.05;2.15;;;;;;;;;;5056221;28;20038;-81
2022/04/01 00:03:53;;;;;;;2.85;1.55;;;;;;;;;;5073338;28;20379;-81
2022/04/01 00:06:19;;;;;;;2.78;1.90;;;;;;;;;;5073250;28;20405;-81
2022/04/01 00:08:44;;;;;;;3.78;2.38;;;;;;;;;;5080344;28;20044;-81
2022/04/01 00:11:10;;;;;;;2.60;1.80;;;;;;;;;;5080418;28;20028;-81
2022/04/01 00:13:35;;;;;;;4.50;2.00;;;;;;;;;;5079521;28;20036;-82
2022/04/01 00:16:01;;;;;;;2.95;1.70;;;;;;;;;;5063186;28;20032;-81
2022/04/01 00:18:26;;;;;;;2.30;1.60;;;;;;;;;;5063592;28;20127;-82
2022/04/01 00:20:52;;;;;;;2.72;1.65;;;;;;;;;;5063143;28;20442;-82
2022/04/01 00:23:17;;;;;;;3.28;2.08;;;;;;;;;;5059931;28;20036;-82
2022/04/01 00:25:45;;;;;;;2.65;1.65;;;;;;;;;;5076473;28;20443;-82
2022/04/01 00:28:10;;;;;;;1.67;1.23;;;;;;;;;;5043523;28;20040;-82
2022/04/01 00:30:38;;;;;;;2.45;1.58;;;;;;;;;;5076547;28;20371;-82
2022/04/01 00:33:08;;;;;;;2.22;1.30;;;;;;;;;;5067577;28;20039;-82
2022/04/01 00:35:35;;;;;;;2.40;1.50;;;;;;;;;;5080541;28;20367;-82
2022/04/01 00:38:01;;;;;;;3.00;1.67;;;;;;;;;;5079796;28;20498;-82
2022/04/01 00:40:27;;;;;;;2.72;1.80;;;;;;;;;;5079564;28;20046;-82
2022/04/01 00:42:52;;;;;;;3.08;1.42;;;;;;;;;;5062628;28;20027;-81
2022/04/01 00:45:18;;;;;;;2.35;1.20;;;;;;;;;;5062801;28;20406;-81
2022/04/01 00:47:43;;;;;;;2.22;1.45;;;;;;;;;;5079446;28;20043;-82
2022/04/01 00:50:09;;;;;;;2.60;1.45;;;;;;;;;;5079520;28;20082;-81
2022/04/01 00:52:36;;;;;;;3.65;1.52;;;;;;;;;;5062724;28;20023;-82
2022/04/01 00:55:04;;;;;;;2.08;1.38;;;;;;;;;;5096012;28;20576;-81
2022/04/01 00:57:30;;;;;;;2.20;1.30;;;;;;;;;;5059384;28;20039;-82
2022/04/01 00:59:55;;;;;;;2.33;1.40;;;;;;;;;;5067195;28;20122;-82
2022/04/01 01:02:21;;;;;;;2.13;1.20;;;;;;;;;;5075875;28;20032;-82
2022/04/01 01:04:46;;;;;;;1.73;1.23;;;;;;;;;;5090042;28;20048;-82
2022/04/01 01:07:13;;;;;;;2.20;1.60;;;;;;;;;;5092678;28;20410;-82
2022/04/01 01:09:38;;;;;;;2.45;1.30;;;;;;;;;;5075834;28;20028;-82
2022/04/01 01:12:06;;;;;;;1.58;1.00;;;;;;;;;;5092486;28;20043;-82
2022/04/01 01:14:34;;;;;;;2.05;1.05;;;;;;;;;;5066044;28;20036;-81
2022/04/01 01:17:01;;;;;;;2.42;1.52;;;;;;;;;;5074916;28;20036;-81
2022/04/01 01:19:27;;;;;;;2.13;1.27;;;;;;;;;;5058936;28;20516;-81
2022/04/01 01:21:53;;;;;;;1.60;0.82;;;;;;;;;;5075304;28;20070;-81
2022/04/01 01:24:35;;;;;;;2.33;1.25;;;;;;;;;;5069430;28;20094;-82
2022/04/01 01:27:01;;;;;;;2.27;1.20;;;;;;;;;;5077409;28;20043;-81
2022/04/01 01:29:30;;;;;;;1.67;0.93;;;;;;;;;;5075388;28;20032;-81
2022/04/01 01:31:57;;;;;;;1.80;0.95;;;;;;;;;;5058932;28;20032;-81
2022/04/01 01:34:23;;;;;;;1.70;1.05;;;;;;;;;;5059005;28;20032;-81
2022/04/01 01:36:49;;;;;;;1.67;0.90;;;;;;;;;;5058878;28;20063;-81
2022/04/01 01:39:14;;;;;;;2.03;0.98;;;;;;;;;;5058444;28;20035;-82
2022/04/01 01:41:42;;;;;;;2.13;1.10;;;;;;;;;;5058250;28;20032;-82
2022/04/01 01:44:07;;;;;;;2.03;1.13;;;;;;;;;;5075377;28;20428;-82
2022/04/01 01:46:34;;;;;;;2.90;0.93;;;;;;;;;;5057993;28;20047;-82
2022/04/01 01:48:59;;;;;;;1.80;1.02;;;;;;;;;;5058320;28;20036;-82
2022/04/01 01:56:52;;;;;;;1.60;0.90;;;;;;;;;;5078689;28;20072;-81
2022/04/01 01:59:18;;;;;;;1.75;1.00;;;;;;;;;;5073541;28;20081;-82
2022/04/01 02:01:45;;;;;;;1.80;1.10;;;;;;;;;;5057758;28;20402;-81
2022/04/01 02:04:11;;;;;;;1.73;0.80;;;;;;;;;;5075436;28;20119;-81
2022/04/01 02:06:37;;;;;;;1.70;0.80;;;;;;;;;;5092252;28;20121;-81
2022/04/01 02:09:03;;;;;;;1.50;0.93;;;;;;;;;;5095070;28;20501;-81
2022/04/01 02:11:28;;;;;;;1.30;0.77;;;;;;;;;;5094419;28;20398;-81
2022/04/01 02:13:54;;;;;;;2.10;1.00;;;;;;;;;;5057559;28;20024;-81
2022/04/01 02:16:21;;;;;;;2.40;0.85;;;;;;;;;;5040801;28;20039;-81
2022/04/01 02:18:47;;;;;;;1.55;0.70;;;;;;;;;;5041730;28;20036;-82
2022/04/01 02:21:15;;;;;;;1.38;0.85;;;;;;;;;;5057741;28;20565;-81
2022/04/01 02:23:43;;;;;;;1.48;0.80;;;;;;;;;;5079481;28;20058;-81
2022/04/01 02:26:09;;;;;;;1.73;1.10;;;;;;;;;;5073850;28;20043;-81
2022/04/01 02:28:35;;;;;;;1.75;1.00;;;;;;;;;;5073605;28;20055;-81
2022/04/01 02:31:01;;;;;;;1.63;1.00;;;;;;;;;;5057529;28;20039;-81
2022/04/01 02:33:27;;;;;;;1.60;1.00;;;;;;;;;;5074250;28;20032;-81
2022/04/01 02:35:54;;;;;;;2.28;1.13;;;;;;;;;;5074252;28;20407;-81
2022/04/01 02:38:20;;;;;;;2.78;1.52;;;;;;;;;;5090931;28;20102;-81
2022/04/01 02:40:45;;;;;;;2.10;1.30;;;;;;;;;;5073669;28;20375;-80
2022/04/01 02:43:10;;;;;;;2.03;1.30;;;;;;;;;;5090918;28;20116;-81
2022/04/01 02:45:36;;;;;;;1.75;1.02;;;;;;;;;;5107517;28;20036;-81
2022/04/01 02:48:01;;;;;;;2.15;1.55;;;;;;;;;;5090930;28;20040;-81
2022/04/01 02:50:27;;;;;;;1.83;1.13;;;;;;;;;;5073687;28;20074;-81
2022/04/01 02:52:52;;;;;;;1.90;1.20;;;;;;;;;;5087886;28;20036;-81
2022/04/01 02:55:18;;;;;;;2.03;1.20;;;;;;;;;;5093529;28;20042;-81
2022/04/01 02:57:44;;;;;;;2.13;1.25;;;;;;;;;;5077111;28;20409;-81
2022/04/01 03:00:10;;;;;;;2.28;1.58;;;;;;;;;;5090351;28;20084;-81
2022/04/01 03:02:37;;;;;;;2.13;1.38;;;;;;;;;;5057323;28;20089;-81
2022/04/01 03:05:06;;;;;;;2.67;1.65;;;;;;;;;;5077814;28;20413;-81
2022/04/01 03:07:32;;;;;;;2.20;1.45;;;;;;;;;;5094315;28;20035;-81
2022/04/01 03:09:58;;;;;;;2.63;1.77;;;;;;;;;;5076882;28;20114;-82
2022/04/01 03:12:24;;;;;;;2.22;1.85;;;;;;;;;;5060349;28;20168;-81
2022/04/01 03:14:50;;;;;;;3.08;2.10;;;;;;;;;;5056827;28;20062;-81
2022/04/01 03:17:15;;;;;;;2.03;1.75;;;;;;;;;;5057235;28;20071;-81
2022/04/01 03:19:41;;;;;;;2.50;1.70;;;;;;;;;;5040414;28;20068;-81
2022/04/01 03:22:06;;;;;;;2.67;1.88;;;;;;;;;;5056772;28;20107;-81
2022/04/01 03:24:32;;;;;;;2.80;1.90;;;;;;;;;;5068727;28;20101;-82
2022/04/01 03:26:57;;;;;;;2.50;2.00;;;;;;;;;;5073622;28;20040;-81
2022/04/01 03:29:23;;;;;;;3.33;2.22;;;;;;;;;;5073625;28;20105;-81
2022/04/01 03:31:51;;;;;;;2.70;2.15;;;;;;;;;;5090177;28;20032;-81
2022/04/01 03:34:17;;;;;;;2.67;2.03;;;;;;;;;;5074059;28;20036;-81
2022/04/01 03:36:42;;;;;;;2.90;2.25;;;;;;;;;;5072974;28;20036;-81
2022/04/01 03:39:08;;;;;;;2.97;2.55;;;;;;;;;;5073313;28;20067;-81
2022/04/01 03:41:34;;;;;;;2.40;1.85;;;;;;;;;;5076131;28;20048;-81
2022/04/01 03:44:00;;;;;;;3.17;2.38;;;;;;;;;;5077394;28;20375;-81
2022/04/01 03:46:26;;;;;;;2.53;2.03;;;;;;;;;;5077574;28;20061;-82
2022/04/01 03:48:59;;;;;;;2.80;2.40;;;;;;;;;;5077110;28;20040;-81
2022/04/01 03:51:25;;;;;;;2.65;2.22;;;;;;;;;;5060467;28;20471;-82
2022/04/01 03:53:57;;;;;;;2.67;1.92;;;;;;;;;;5070325;28;20848;-81
2022/04/01 03:56:34;;;;;;;2.90;2.17;;;;;;;;;;5077609;28;20032;-81
2022/04/01 03:59:00;;;;;;;2.75;2.17;;;;;;;;;;5063846;28;20028;-81
2022/04/01 04:01:26;;;;;;;2.78;2.10;;;;;;;;;;5063859;28;20130;-81
2022/04/01 04:03:51;;;;;;;2.63;2.13;;;;;;;;;;5080540;28;20043;-81
2022/04/01 04:06:17;;;;;;;2.70;2.00;;;;;;;;;;5079755;28;20035;-81
2022/04/01 04:08:43;;;;;;;3.05;2.25;;;;;;;;;;5096905;28;20039;-81
2022/04/01 04:11:09;;;;;;;2.50;2.30;;;;;;;;;;5063276;28;20447;-81
2022/04/01 04:13:36;;;;;;;2.30;1.67;;;;;;;;;;5063539;28;20127;-81
2022/04/01 04:16:09;;;;;;;2.30;1.95;;;;;;;;;;5097271;28;20042;-81
2022/04/01 04:18:43;;;;;;;2.17;1.77;;;;;;;;;;5080166;28;20035;-81
2022/04/01 04:21:10;;;;;;;3.15;2.08;;;;;;;;;;5063102;28;20023;-81
2022/04/01 04:23:45;;;;;;;2.55;2.25;;;;;;;;;;5113870;28;20046;-80
2022/04/01 04:26:13;;;;;;;2.42;1.77;;;;;;;;;;5113581;28;20051;-81
2022/04/01 04:28:40;;;;;;;2.58;1.80;;;;;;;;;;5096809;28;20035;-81
2022/04/01 04:31:07;;;;;;;2.20;1.90;;;;;;;;;;5063173;28;20032;-81
2022/04/01 04:33:33;;;;;;;2.70;2.40;;;;;;;;;;5080302;28;20108;-81
2022/04/01 04:36:06;;;;;;;2.05;1.60;;;;;;;;;;5079698;28;20436;-81
2022/04/01 04:38:38;;;;;;;2.33;1.60;;;;;;;;;;5080939;28;20036;-81
2022/04/01 04:41:08;;;;;;;2.17;1.73;;;;;;;;;;5063064;28;20070;-81
2022/04/01 04:43:44;;;;;;;2.38;2.03;;;;;;;;;;5080642;28;20036;-81
2022/04/01 04:46:09;;;;;;;2.22;1.50;;;;;;;;;;5096259;28;20074;-81
2022/04/01 04:48:35;;;;;;;2.30;1.83;;;;;;;;;;5079785;28;20499;-81
2022/04/01 04:51:05;;;;;;;2.20;1.77;;;;;;;;;;5079363;28;20043;-81
2022/04/01 04:53:32;;;;;;;2.95;2.20;;;;;;;;;;5075574;28;20040;-81
2022/04/01 04:56:04;;;;;;;2.60;1.80;;;;;;;;;;5059416;28;20055;-81
2022/04/01 04:58:34;;;;;;;2.17;1.70;;;;;;;;;;5074556;28;20039;-81
2022/04/01 05:01:03;;;;;;;2.38;1.80;;;;;;;;;;5076078;28;20065;-82
2022/04/01 05:04:07;;;;;;;1.85;1.30;;;;;;;;;;5059428;28;20032;-81
2022/04/01 05:06:40;;;;;;;2.97;1.75;;;;;;;;;;5077766;28;20032;-82
2022/04/01 05:09:19;;;;;;;2.25;1.40;;;;;;;;;;5076530;28;20044;-82
2022/04/01 05:12:03;;;;;;;2.33;1.58;;;;;;;;;;5075746;28;20031;-82
2022/04/01 05:14:38;;;;;;;2.25;1.90;;;;;;;;;;5082219;28;20040;-83
2022/04/01 05:17:04;;;;;;;1.88;1.42;;;;;;;;;;5059067;28;20036;-85
2022/04/01 05:19:32;;;;;;;1.63;1.23;;;;;;;;;;5059485;28;20065;-86
2022/04/01 05:22:08;;;;;;;2.55;1.60;;;;;;;;;;5076298;28;20038;-87
2022/04/01 05:24:39;;;;;;;1.85;1.40;;;;;;;;;;5059447;28;20025;-87
2022/04/01 05:27:31;;;;;;;3.03;1.27;;;;;;;;;;5059651;28;20101;-87
2022/04/01 05:30:13;;;;;;;1.90;1.45;;;;;;;;;;5062561;28;20063;-86
2022/04/01 05:32:41;;;;;;;1.80;1.30;;;;;;;;;;5059442;28;20050;-85
2022/04/01 05:35:07;;;;;;;1.98;1.10;;;;;;;;;;5042385;28;20517;-82
2022/04/01 05:37:34;;;;;;;2.30;1.60;;;;;;;;;;5058800;28;20028;-83
2022/04/01 05:40:02;;;;;;;2.22;1.70;;;;;;;;;;5059109;28;20039;-82
2022/04/01 05:42:32;;;;;;;2.53;1.50;;;;;;;;;;5059428;28;20031;-82
2022/04/01 05:44:57;;;;;;;2.15;1.38;;;;;;;;;;5058760;28;20036;-83
2022/04/01 05:47:24;;;;;;;2.03;1.00;;;;;;;;;;5058169;28;20039;-84
2022/04/01 05:49:50;;;;;;;2.88;1.70;;;;;;;;;;5041994;28;20036;-86
2022/04/01 05:52:15;;;;;;;1.90;1.17;;;;;;;;;;5075625;28;20034;-89
2022/04/01 05:54:41;;;;;;;2.13;1.38;;;;;;;;;;5071533;28;20044;-86
2022/04/01 05:57:09;;;;;;;2.03;1.38;;;;;;;;;;5061827;28;20069;-86
2022/04/01 05:59:34;;;;;;;2.30;1.33;;;;;;;;;;5074654;28;20673;-85
2022/04/01 06:02:15;;;;;;;3.15;1.63;;;;;;;;;;5058118;28;20057;-85
2022/04/01 06:05:13;;;;;;;3.28;1.60;;;;;;;;;;5091639;28;20868;-85
2022/04/01 06:07:49;;;;;;;5.72;2.35;;;;;;;;;;5074529;28;20039;-85
2022/04/01 06:10:29;;;;;;;3.72;1.77;;;;;;;;;;5058327;28;20047;-85
2022/04/01 06:13:25;;;;;;;5.70;1.88;;;;;;;;;;5041948;28;20486;-86
2022/04/01 06:15:59;;;;;;;4.30;1.80;;;;;;;;;;5059051;28;20043;-90
2022/04/01 06:18:37;;;;;;;5.72;1.95;;;;;;;;;;5092209;28;20051;-86
2022/04/01 06:21:04;;;;;;;3.25;1.73;;;;;;;;;;5091468;28;20051;-86
2022/04/01 06:23:48;;;;;;;6.65;2.00;;;;;;;;;;5044031;28;20080;-83
2022/04/01 06:26:13;;;;;;;7.28;1.92;;;;;;;;;;5073294;28;20544;-83
2022/04/01 06:29:14;;;;;;;2.90;1.63;;;;;;;;;;5073351;28;20028;-83
2022/04/01 06:31:40;;;;;;;4.13;1.67;;;;;;;;;;5064436;28;20414;-83
2022/04/01 06:34:14;;;;;;;3.38;1.83;;;;;;;;;;5073843;28;20134;-83
2022/04/01 06:36:41;;;;;;;5.32;1.38;;;;;;;;;;5057821;28;20036;-83
2022/04/01 06:39:10;;;;;;;4.97;1.80;;;;;;;;;;5057416;28;20036;-84
2022/04/01 06:41:59;;;;;;;2.30;1.30;;;;;;;;;;5057221;28;20882;-83
2022/04/01 06:44:24;;;;;;;9.55;2.15;;;;;;;;;;5091294;28;20036;-83
2022/04/01 06:46:51;;;;;;;3.17;1.65;;;;;;;;;;5041133;28;20464;-87
2022/04/01 06:49:18;;;;;;;19.10;2.15;;;;;;;;;;5041721;28;20155;-87
2022/04/01 06:51:46;;;;;;;9.27;2.65;;;;;;;;;;5041352;28;20035;-87
2022/04/01 06:54:13;;;;;;;8.85;1.73;;;;;;;;;;5041393;28;20028;-87
2022/04/01 06:56:40;;;;;;;8.23;1.92;;;;;;;;;;5041687;28;20498;-88
2022/04/01 06:59:05;;;;;;;6.35;1.92;;;;;;;;;;5044467;28;20089;-87
2022/04/01 07:01:31;;;;;;;5.18;1.67;;;;;;;;;;5057708;28;20032;-86
2022/04/01 07:03:59;;;;;;;3.00;1.48;;;;;;;;;;5057813;28;20122;-86
2022/04/01 07:06:25;;;;;;;4.07;1.50;;;;;;;;;;5074382;28;20047;-87
2022/04/01 07:08:51;;;;;;;5.00;1.83;;;;;;;;;;5058060;28;20085;-87
2022/04/01 07:11:21;;;;;;;4.88;1.48;;;;;;;;;;5057790;28;20044;-86
2022/04/01 07:13:47;;;;;;;3.50;1.80;;;;;;;;;;5041458;28;20386;-86
2022/04/01 07:16:14;;;;;;;3.78;1.40;;;;;;;;;;5056897;28;20024;-87
2022/04/01 07:18:40;;;;;;;4.32;1.33;;;;;;;;;;5074646;28;20043;-87
2022/04/01 07:21:05;;;;;;;2.78;1.50;;;;;;;;;;5057458;28;20032;-87
2022/04/01 07:23:32;;;;;;;2.72;1.23;;;;;;;;;;5057765;28;20032;-87
2022/04/01 07:25:58;;;;;;;4.18;1.40;;;;;;;;;;5057435;28;20482;-87
2022/04/01 07:28:25;;;;;;;5.18;1.20;;;;;;;;;;5057763;28;20078;-87
2022/04/01 07:30:51;;;;;;;2.88;1.25;;;;;;;;;;5074197;28;20044;-87
2022/04/01 07:33:19;;;;;;;2.67;1.20;;;;;;;;;;5074424;28;20078;-88
2022/04/01 07:35:49;;;;;;;4.55;1.88;;;;;;;;;;5057874;28;20039;-88
2022/04/01 07:38:15;;;;;;;3.17;1.50;;;;;;;;;;5078339;28;20067;-88
2022/04/01 07:40:42;;;;;;;2.67;1.05;;;;;;;;;;5061301;28;20484;-87
2022/04/01 07:43:09;;;;;;;4.88;1.42;;;;;;;;;;5077986;28;20067;-88
2022/04/01 07:45:35;;;;;;;4.88;1.90;;;;;;;;;;5060898;28;20051;-87
2022/04/01 07:48:01;;;;;;;2.72;1.20;;;;;;;;;;5061064;28;20046;-87
2022/04/01 07:50:27;;;;;;;4.43;1.55;;;;;;;;;;5077560;28;20553;-87
2022/04/01 07:52:54;;;;;;;3.85;1.35;;;;;;;;;;5077623;28;20463;-87
2022/04/01 07:55:20;;;;;;;2.40;1.38;;;;;;;;;;5077111;28;20126;-86
2022/04/01 07:57:46;;;;;;;2.95;1.15;;;;;;;;;;5077002;28;20200;-86
2022/04/01 08:00:12;;;;;;;1.98;1.25;;;;;;;;;;5077284;28;20534;-85
2022/04/01 08:02:39;;;;;;;3.15;1.50;;;;;;;;;;5060755;28;20024;-86
2022/04/01 08:05:06;;;;;;;3.15;1.40;;;;;;;;;;5076854;28;20503;-85
2022/04/01 08:07:33;;;;;;;2.03;1.08;;;;;;;;;;5060176;28;20031;-86
2022/04/01 08:09:58;;;;;;;2.00;1.10;;;;;;;;;;5077271;28;20153;-85
2022/04/01 08:12:24;;;;;;;1.67;1.02;;;;;;;;;;5059842;28;20027;-85
2022/04/01 08:14:49;;;;;;;1.83;1.10;;;;;;;;;;5056506;28;20055;-85
2022/04/01 08:17:15;;;;;;;2.85;1.30;;;;;;;;;;5040382;28;20028;-85
2022/04/01 08:19:42;;;;;;;3.25;1.42;;;;;;;;;;5056881;28;20055;-84
2022/04/01 08:22:09;;;;;;;2.85;1.60;;;;;;;;;;5056795;28;20066;-85
2022/04/01 08:24:35;;;;;;;2.03;1.27;;;;;;;;;;5052138;28;20047;-85
2022/04/01 08:27:00;;;;;;;4.20;1.70;;;;;;;;;;5073588;28;20044;-84
2022/04/01 08:29:27;;;;;;;1.67;1.20;;;;;;;;;;5060173;28;20122;-85
2022/04/01 08:31:53;;;;;;;2.65;1.58;;;;;;;;;;5063204;28;20043;-85
2022/04/01 08:34:20;;;;;;;2.28;1.25;;;;;;;;;;5097266;28;20024;-84
2022/04/01 08:36:47;;;;;;;1.75;1.10;;;;;;;;;;5063130;28;20043;-84
2022/04/01 08:39:12;;;;;;;2.95;1.50;;;;;;;;;;5063059;28;20035;-84
2022/04/01 08:41:38;;;;;;;2.03;1.00;;;;;;;;;;5063015;28;20036;-84
2022/04/01 08:44:03;;;;;;;1.90;1.23;;;;;;;;;;5080068;28;20069;-84
2022/04/01 08:46:30;;;;;;;1.38;1.10;;;;;;;;;;5096337;28;20059;-84
2022/04/01 08:48:56;;;;;;;2.47;1.20;;;;;;;;;;5063044;28;20040;-84
2022/04/01 08:51:23;;;;;;;2.58;1.55;;;;;;;;;;5062860;28;20088;-84
2022/04/01 08:53:48;;;;;;;2.05;1.27;;;;;;;;;;5076353;28;20039;-84
2022/04/01 08:56:18;;;;;;;2.13;1.23;;;;;;;;;;5058668;28;20065;-84
2022/04/01 08:58:44;;;;;;;2.80;1.20;;;;;;;;;;5061212;28;20027;-84
2022/04/01 09:01:12;;;;;;;2.05;1.50;;;;;;;;;;5079654;28;20039;-84
2022/04/01 09:03:37;;;;;;;3.03;1.55;;;;;;;;;;5062720;28;20041;-85
2022/04/01 09:06:04;;;;;;;2.25;1.70;;;;;;;;;;5062836;28;20031;-85
2022/04/01 09:08:35;;;;;;;1.98;1.60;;;;;;;;;;5062455;28;20059;-84
2022/04/01 09:11:17;;;;;;;2.30;1.38;;;;;;;;;;5078906;28;20536;-85
2022/04/01 09:13:43;;;;;;;2.38;1.65;;;;;;;;;;5059226;28;20020;-84
2022/04/01 09:16:29;;;;;;;2.38;2.05;;;;;;;;;;5075629;28;20139;-85
2022/04/01 09:18:56;;;;;;;2.40;1.73;;;;;;;;;;5043340;28;20036;-85
2022/04/01 09:21:29;;;;;;;2.00;1.25;;;;;;;;;;5042369;28;20080;-85
2022/04/01 09:23:56;;;;;;;3.03;1.50;;;;;;;;;;5067243;28;20398;-85
2022/04/01 09:26:43;;;;;;;2.15;1.52;;;;;;;;;;5074069;28;20063;-84
2022/04/01 09:29:10;;;;;;;2.63;1.85;;;;;;;;;;5058496;28;20054;-84
2022/04/01 09:31:39;;;;;;;1.80;1.42;;;;;;;;;;5059269;28;20036;-84
2022/04/01 09:34:06;;;;;;;2.67;1.85;;;;;;;;;;5075889;28;20478;-84
2022/04/01 09:36:33;;;;;;;2.85;2.03;;;;;;;;;;5059112;28;20032;-85
2022/04/01 09:39:16;;;;;;;2.75;2.10;;;;;;;;;;5074959;28;20043;-84
2022/04/01 09:41:49;;;;;;;2.33;1.65;;;;;;;;;;5075066;28;20081;-83
2022/04/01 09:44:21;;;;;;;3.42;1.65;;;;;;;;;;5075127;28;20060;-84
2022/04/01 09:46:50;;;;;;;2.83;1.80;;;;;;;;;;5058295;28;20035;-82
2022/04/01 09:49:32;;;;;;;3.72;2.35;;;;;;;;;;5075290;28;20097;-83
2022/04/01 09:51:57;;;;;;;3.47;2.00;;;;;;;;;;5058427;28;20027;-83
2022/04/01 09:54:23;;;;;;;2.58;2.20;;;;;;;;;;5057983;28;20522;-83
2022/04/01 09:56:54;;;;;;;2.45;1.75;;;;;;;;;;5042597;28;20029;-83
2022/04/01 09:59:20;;;;;;;2.60;2.00;;;;;;;;;;5059667;28;20039;-83
2022/04/01 10:01:45;;;;;;;2.65;2.28;;;;;;;;;;5058324;28;20028;-82
2022/04/01 10:04:12;;;;;;;2.67;2.00;;;;;;;;;;5058003;28;20036;-84
2022/04/01 10:06:39;;;;;;;3.63;1.90;;;;;;;;;;5075039;28;20036;-82
2022/04/01 10:09:08;;;;;;;2.47;2.10;;;;;;;;;;5057796;28;20056;-81
2022/04/01 10:11:35;;;;;;;2.65;2.00;;;;;;;;;;5074560;28;20035;-81
2022/04/01 10:14:03;;;;;;;2.80;1.80;;;;;;;;;;5058208;28;20040;-82
2022/04/01 10:16:32;;;;;;;2.63;2.00;;;;;;;;;;5058205;28;20028;-83
2022/04/01 10:18:58;;;;;;;3.20;2.17;;;;;;;;;;5070002;28;20032;-82
2022/04/01 10:21:24;;;;;;;8.55;2.78;;;;;;;;;;5041263;28;20020;-81
2022/04/01 10:23:59;;;;;;;12.25;3.50;;;;;;;;;;5066940;28;20132;-81
2022/04/01 10:26:29;;;;;;;11.52;3.58;;;;;;;;;;5094573;28;20032;-81
2022/04/01 10:28:55;;;;;;;9.73;3.55;;;;;;;;;;5077995;28;20043;-81
2022/04/01 10:31:24;;;;;;;30.08;18.35;;;;;;;;;;5061049;28;20027;-81
2022/04/01 10:33:49;;;;;;;66.30;42.75;;;;;;;;;;5078377;28;20031;-81
2022/04/01 10:36:22;;;;;;;180.35;120.25;;;;;;;;;;5077297;28;20038;-80
2022/04/01 10:38:48;;;;;;;;;;;;;;;;;;5111653;28;20034;-81
2022/04/01 10:41:15;;;;;;;83.60;56.67;;;;;;;;;;5077478;28;19907;-81
2022/04/01 10:43:44;;;;;;;63.85;42.70;;;;;;;;;;5077639;28;20474;-80
2022/04/01 10:46:13;;;;;;;48.78;32.75;;;;;;;;;;5094112;28;20027;-80
2022/04/01 10:51:39;;;;;;;40.50;29.30;;;;;;;;;;5096615;28;20046;-81
2022/04/01 10:54:14;;;;;;;30.08;20.85;;;;;;;;;;5076172;28;20032;-81
2022/04/01 10:56:44;;;;;;;27.70;20.77;;;;;;;;;;5090113;28;20501;-80
2022/04/01 10:59:13;;;;;;;25.98;18.10;;;;;;;;;;5073622;28;20046;-81
2022/04/01 11:02:01;;;;;;;30.92;27.42;;;;;;;;;;5057103;28;20036;-82
2022/04/01 11:04:31;;;;;;;35.97;28.52;;;;;;;;;;5059140;28;20048;-81
2022/04/01 11:07:36;;;;;;;28.40;23.35;;;;;;;;;;5073703;28;20043;-81
2022/04/01 11:10:04;;;;;;;30.38;24.13;;;;;;;;;;5030001;28;20070;-80
2022/04/01 11:12:38;;;;;;;34.75;27.02;;;;;;;;;;5040736;28;20066;-81
2022/04/01 11:17:52;;;;;;;27.75;22.83;;;;;;;;;;5090459;28;20036;-81
2022/04/01 11:20:21;;;;;;;30.15;23.40;;;;;;;;;;5073588;28;20039;-81
2022/04/01 11:22:52;;;;;;;39.10;32.60;;;;;;;;;;5074275;28;20036;-80
2022/04/01 11:25:33;;;;;;;37.75;32.08;;;;;;;;;;5110515;28;20039;-80
2022/04/01 11:28:14;;;;;;;32.63;28.50;;;;;;;;;;5093608;28;20122;-81
2022/04/01 11:30:48;;;;;;;33.78;27.85;;;;;;;;;;5093329;28;20562;-80
2022/04/01 11:33:21;;;;;;;31.23;27.27;;;;;;;;;;5110490;28;20088;-80
2022/04/01 11:35:48;;;;;;;;;;;;;;;;;;5093559;28;20028;-80
2022/04/01 11:38:15;;;;;;;28.73;24.90;;;;;;;;;;5093869;28;20302;-80
2022/04/01 11:40:41;;;;;;;30.27;24.90;;;;;;;;;;5060053;28;20031;-81
2022/04/01 11:43:10;;;;;;;28.42;23.92;;;;;;;;;;5060042;28;20489;-80
2022/04/01 11:45:54;;;;;;;29.27;24.75;;;;;;;;;;5093810;28;20498;-81
2022/04/01 11:48:27;;;;;;;26.60;22.60;;;;;;;;;;5079018;28;20073;-80
2022/04/01 11:51:02;;;;;;;27.77;21.55;;;;;;;;;;5060517;28;20525;-80
2022/04/01 11:53:45;;;;;;;27.05;23.08;;;;;;;;;;5077649;28;20102;-80
2022/04/01 11:56:11;;;;;;;26.77;21.58;;;;;;;;;;5093757;28;20120;-79
2022/04/01 11:59:00;;;;;;;23.33;19.83;;;;;;;;;;5076717;28;20102;-79
2022/04/01 12:01:55;;;;;;;23.20;20.27;;;;;;;;;;5079719;28;20509;-79
2022/04/01 12:04:33;;;;;;;29.52;24.90;;;;;;;;;;5085579;28;20103;-79
2022/04/01 12:09:59;;;;;;;26.77;23.85;;;;;;;;;;5100264;28;20036;-80
2022/04/01 12:12:25;;;;;;;25.77;22.27;;;;;;;;;;5080780;28;20034;-79
2022/04/01 12:14:51;;;;;;;28.90;23.63;;;;;;;;;;5076637;28;20866;-79
2022/04/01 12:17:18;;;;;;;25.48;21.80;;;;;;;;;;5077366;28;20047;-79
2022/04/01 12:19:43;;;;;;;26.27;22.48;;;;;;;;;;5043427;28;20047;-79
2022/04/01 12:22:10;;;;;;;25.52;21.58;;;;;;;;;;5059923;28;20401;-79
2022/04/01 12:24:37;;;;;;;24.02;21.10;;;;;;;;;;5089043;28;20047;-80
2022/04/01 12:27:04;;;;;;;25.23;22.00;;;;;;;;;;5093663;28;20058;-79
2022/04/01 12:29:30;;;;;;;22.70;19.98;;;;;;;;;;5076974;28;20028;-79
2022/04/01 12:32:03;;;;;;;21.45;19.15;;;;;;;;;;5093316;28;20123;-80
2022/04/01 12:34:30;;;;;;;22.52;20.13;;;;;;;;;;5076048;28;20063;-79
2022/04/01 12:37:03;;;;;;;22.35;19.90;;;;;;;;;;5076492;28;20486;-79
2022/04/01 12:39:34;;;;;;;34.90;28.65;;;;;;;;;;5076005;28;20028;-79
2022/04/01 12:42:10;;;;;;;37.90;30.75;;;;;;;;;;5076245;28;20471;-79
2022/04/01 12:44:36;;;;;;;30.27;24.75;;;;;;;;;;5092899;28;20024;-79
2022/04/01 12:47:04;;;;;;;29.27;23.40;;;;;;;;;;5076186;28;20563;-79
2022/04/01 12:49:34;;;;;;;57.42;51.45;;;;;;;;;;5076375;28;20032;-79
2022/04/01 12:52:05;;;;;;;44.50;38.17;;;;;;;;;;5076003;28;20032;-79
2022/04/01 12:54:37;;;;;;;40.63;33.88;;;;;;;;;;5075641;28;20502;-79
2022/04/01 12:57:06;;;;;;;40.47;33.58;;;;;;;;;;5080040;28;20043;-79
2022/04/01 12:59:36;;;;;;;37.20;32.47;;;;;;;;;;5093074;28;20078;-79
2022/04/01 13:02:07;;;;;;;35.20;31.35;;;;;;;;;;5062037;28;20039;-79
2022/04/01 13:04:42;;;;;;;34.13;28.30;;;;;;;;;;5082267;28;20031;-79
2022/04/01 13:07:28;;;;;;;31.08;27.20;;;;;;;;;;5061908;28;20028;-80
2022/04/01 13:09:57;;;;;;;30.08;26.45;;;;;;;;;;5080442;28;20567;-80
2022/04/01 13:12:34;;;;;;;28.95;25.88;;;;;;;;;;5078849;28;20031;-80
2022/04/01 13:15:01;;;;;;;31.60;25.08;;;;;;;;;;5112913;28;20114;-82
2022/04/01 13:17:27;;;;;;;30.30;24.05;;;;;;;;;;5062382;28;20031;-82
2022/04/01 13:19:53;;;;;;;27.80;23.50;;;;;;;;;;5079095;28;20043;-81
2022/04/01 13:22:18;;;;;;;30.48;22.75;;;;;;;;;;5062511;28;20500;-81
2022/04/01 13:24:46;;;;;;;24.50;21.42;;;;;;;;;;5058135;28;20513;-82
2022/04/01 13:27:13;;;;;;;28.65;22.77;;;;;;;;;;5075467;28;20528;-82
2022/04/01 13:29:39;;;;;;;27.27;20.77;;;;;;;;;;5042187;28;20036;-80
2022/04/01 13:32:05;;;;;;;26.58;20.55;;;;;;;;;;5041983;28;20039;-81
2022/04/01 13:34:32;;;;;;;24.52;19.00;;;;;;;;;;5058630;28;20032;-82
2022/04/01 13:36:57;;;;;;;22.83;18.55;;;;;;;;;;5075375;28;20048;-82
2022/04/01 13:39:24;;;;;;;23.10;18.48;;;;;;;;;;5042043;28;20035;-82
2022/04/01 13:41:50;;;;;;;24.35;19.65;;;;;;;;;;5042107;28;20032;-83
2022/04/01 13:44:15;;;;;;;21.52;18.40;;;;;;;;;;5042187;28;20028;-82
2022/04/01 13:46:41;;;;;;;22.55;18.27;;;;;;;;;;5074105;28;20036;-78
2022/04/01 13:49:06;;;;;;;21.65;17.60;;;;;;;;;;5058119;28;20024;-81
2022/04/01 13:51:33;;;;;;;20.38;16.80;;;;;;;;;;5074824;28;20449;-81
2022/04/01 13:53:58;;;;;;;20.38;16.02;;;;;;;;;;5069041;28;20047;-81
2022/04/01 13:56:24;;;;;;;25.33;15.95;;;;;;;;;;5048426;28;20031;-81
2022/04/01 13:58:50;;;;;;;22.10;15.10;;;;;;;;;;5093276;28;20039;-81
2022/04/01 14:01:15;;;;;;;22.80;15.52;;;;;;;;;;5077721;28;20077;-80
2022/04/01 14:03:42;;;;;;;22.17;15.98;;;;;;;;;;5061268;28;20027;-81
2022/04/01 14:06:08;;;;;;;20.77;15.40;;;;;;;;;;5078706;28;20055;-80
2022/04/01 14:08:34;;;;;;;20.70;14.68;;;;;;;;;;5061454;28;20122;-81
2022/04/01 14:11:03;;;;;;;18.95;14.43;;;;;;;;;;5061197;28;20042;-81
2022/04/01 14:13:29;;;;;;;20.45;14.13;;;;;;;;;;5078532;28;20498;-81
2022/04/01 14:15:55;;;;;;;22.92;13.35;;;;;;;;;;5077720;28;20043;-81
2022/04/01 14:18:20;;;;;;;21.75;13.93;;;;;;;;;;5061489;28;20062;-81
2022/04/01 14:20:46;;;;;;;30.95;26.08;;;;;;;;;;5077957;28;20043;-81
2022/04/01 14:23:15;;;;;;;307.50;201.60;;;;;;;;;;5094388;28;20042;-82
2022/04/01 14:25:45;;;;;;;202.15;139.15;;;;;;;;;;5061009;28;20074;-83
2022/04/01 14:28:11;;;;;;;250.88;176.95;;;;;;;;;;5061242;28;20035;-83
2022/04/01 14:30:37;;;;;;;327.35;265.25;;;;;;;;;;5060769;28;20153;-82
2022/04/01 14:33:02;;;;;;;333.25;264.63;;;;;;;;;;5077854;28;20028;-80
2022/04/01 14:35:28;;;;;;;339.13;269.38;;;;;;;;;;5061142;28;20031;-80
2022/04/01 14:37:54;;;;;;;387.27;303.88;;;;;;;;;;5077090;28;20036;-81
2022/04/01 14:40:19;;;;;;;419.50;346.85;;;;;;;;;;5077620;28;20050;-81
2022/04/01 14:42:45;;;;;;;424.42;349.83;;;;;;;;;;5077577;28;20020;-81
2022/04/01 14:45:11;;;;;;;415.13;339.05;;;;;;;;;;5060237;28;20115;-82
2022/04/01 14:47:36;;;;;;;381.30;309.95;;;;;;;;;;5077309;28;20031;-81
2022/04/01 14:50:02;;;;;;;347.67;291.60;;;;;;;;;;5087186;28;20395;-80
2022/04/01 14:52:28;;;;;;;313.35;263.13;;;;;;;;;;5059355;28;20402;-81
2022/04/01 14:54:54;;;;;;;279.67;227.43;;;;;;;;;;5059788;28;20035;-80
2022/04/01 14:57:20;;;;;;;261.65;213.10;;;;;;;;;;5094553;28;20028;-80
2022/04/01 14:59:46;;;;;;;367.88;276.23;;;;;;;;;;5073535;28;20075;-80